createdAt,value
2022-08-02T00:00:00.659Z,40.56
2022-08-02T00:02:28.936Z,40.67
2022-08-02T00:04:57.151Z,39.85
2022-08-02T00:07:25.406Z,39.54
2022-08-02T00:10:30.754Z,40.92
2022-08-02T00:12:58.989Z,40.23
2022-08-02T00:15:27.239Z,41.39
2022-08-02T00:18:32.539Z,41.32
2022-08-02T00:21:00.773Z,40.1
2022-08-02T00:23:29.037Z,39.76
2022-08-02T00:25:57.275Z,41.31
2022-08-02T00:28:27.077Z,40.99
2022-08-02T00:31:30.829Z,41.14
2022-08-02T00:34:04.584Z,41.65
2022-08-02T00:36:27.309Z,42.06
2022-08-02T00:39:34.198Z,41.91
2022-08-02T00:42:00.886Z,42.35
2022-08-02T00:44:20.933Z,41.39
2022-08-02T00:47:26.234Z,41.33
2022-08-02T00:50:31.576Z,41.83
2022-08-02T00:52:59.842Z,41.39
2022-08-02T00:55:30.864Z,42.05
2022-08-02T00:58:33.372Z,41.28
2022-08-02T01:01:01.641Z,42.59
2022-08-02T01:03:29.886Z,42.64
2022-08-02T01:06:10.809Z,42.61
2022-08-02T01:08:29.251Z,42.92
2022-08-02T01:11:31.674Z,41.64
2022-08-02T01:13:59.917Z,42.32
2022-08-02T01:16:28.178Z,43.15
2022-08-02T01:19:33.500Z,42.95
2022-08-02T01:22:01.725Z,43.24
2022-08-02T01:24:29.968Z,42.9
2022-08-02T01:26:58.184Z,42.96
2022-08-02T01:29:26.574Z,43.11
2022-08-02T01:32:31.786Z,42.15
2022-08-02T01:35:00.025Z,42.79
2022-08-02T01:37:28.273Z,42.72
2022-08-02T01:40:33.596Z,42.43
2022-08-02T01:43:01.838Z,41.77
2022-08-02T01:45:30.053Z,42.17
2022-08-02T01:47:58.329Z,41.72
2022-08-02T01:50:26.569Z,42.75
2022-08-02T01:53:31.924Z,42.69
2022-08-02T01:55:57.243Z,42.33
2022-08-02T01:58:20.180Z,42.77
2022-08-02T02:01:25.561Z,43.07
2022-08-02T02:04:30.783Z,43.65
2022-08-02T02:06:59.076Z,43.91
2022-08-02T02:09:27.305Z,43.62
2022-08-02T02:12:32.600Z,43.49
2022-08-02T02:15:00.881Z,42.8
2022-08-02T02:17:50.916Z,43.43
2022-08-02T02:19:57.357Z,43.77
2022-08-02T02:22:25.614Z,42.49
2022-08-02T02:25:35.735Z,43.34
2022-08-02T02:27:59.210Z,43.07
2022-08-02T02:30:27.428Z,43.86
2022-08-02T02:33:32.729Z,44.29
2022-08-02T02:36:00.964Z,43.22
2022-08-02T02:38:29.234Z,43.23
2022-08-02T02:40:57.472Z,43.17
2022-08-02T02:43:25.728Z,43.12
2022-08-02T02:46:31.015Z,43.45
2022-08-02T02:48:59.311Z,43.57
2022-08-02T02:51:27.533Z,43.83
2022-08-02T02:54:35.298Z,42.59
2022-08-02T02:57:01.093Z,43.69
2022-08-02T02:59:29.337Z,43.89
2022-08-02T03:02:08.661Z,33.56
2022-08-02T03:06:14.859Z,43.26
2022-08-02T03:09:14.102Z,43.69
2022-08-02T03:12:20.039Z,44.27
2022-08-02T03:15:24.763Z,44.05
2022-08-02T03:19:01.944Z,44.37
2022-08-02T03:20:58.316Z,44.27
2022-08-02T03:23:26.575Z,43.73
2022-08-02T03:26:31.871Z,43.96
2022-08-02T03:29:00.161Z,44.15
2022-08-02T03:31:28.393Z,41.5
2022-08-02T03:34:33.670Z,43.57
2022-08-02T03:37:01.927Z,43.22
2022-08-02T03:39:30.185Z,44.27
2022-08-02T03:41:58.431Z,44.32
2022-08-02T03:44:26.662Z,44.48
2022-08-02T03:47:32.041Z,44.58
2022-08-02T03:50:00.219Z,44.28
2022-08-02T03:52:28.533Z,43.57
2022-08-02T03:55:33.795Z,44.44
2022-08-02T03:58:02.030Z,43.81
2022-08-02T04:00:30.261Z,44.02
2022-08-02T04:02:58.530Z,43.53
2022-08-02T04:06:04.934Z,43.87
2022-08-02T04:08:36.584Z,43.53
2022-08-02T04:11:29.244Z,43.87
2022-08-02T04:13:57.472Z,43.06
2022-08-02T04:16:25.692Z,43.95
2022-08-02T04:19:31.014Z,44.12
2022-08-02T04:21:59.306Z,44.37
2022-08-02T04:24:27.518Z,44.78
2022-08-02T04:27:51.458Z,44
2022-08-02T04:30:01.056Z,44.44
2022-08-02T04:32:29.331Z,43.35
2022-08-02T04:35:18.944Z,43.87
2022-08-02T04:38:05.444Z,44.34
2022-08-02T04:40:31.091Z,44.91
2022-08-02T04:42:59.397Z,45.01
2022-08-02T04:45:43.244Z,44.24
2022-08-02T04:48:32.907Z,44.43
2022-08-02T04:51:01.176Z,45.2
2022-08-02T04:53:29.452Z,44.89
2022-08-02T04:55:57.682Z,43.9
2022-08-02T04:58:58.117Z,45.41
2022-08-02T05:01:31.227Z,44.38
2022-08-02T05:03:59.490Z,45.09
2022-08-02T05:06:27.748Z,44.86
2022-08-02T05:09:24.861Z,44.55
2022-08-02T05:12:30.145Z,44.58
2022-08-02T05:14:58.416Z,44.17
2022-08-02T05:17:26.659Z,44.81
2022-08-02T05:20:31.995Z,44.61
2022-08-02T05:23:00.197Z,44.76
2022-08-02T05:25:28.495Z,44.99
2022-08-02T05:28:33.769Z,44.77
2022-08-02T05:31:02.043Z,44.51
2022-08-02T05:33:30.257Z,44.51
2022-08-02T05:35:58.544Z,43.59
2022-08-02T05:38:26.755Z,44.58
2022-08-02T05:41:32.086Z,44.89
2022-08-02T05:44:00.346Z,44.24
2022-08-02T05:46:28.591Z,44.28
2022-08-02T05:49:33.943Z,45.72
2022-08-02T05:52:02.144Z,45.6
2022-08-02T05:54:30.362Z,45.06
2022-08-02T05:56:58.638Z,44.27
2022-08-02T05:59:26.889Z,45.47
2022-08-02T06:03:09.263Z,44.67
2022-08-02T06:07:20.499Z,44.29
2022-08-02T06:10:25.797Z,44.96
2022-08-02T06:13:31.095Z,44.73
2022-08-02T06:15:59.370Z,43.6
2022-08-02T06:18:28.774Z,44.91
2022-08-02T06:22:30.861Z,44.79
2022-08-02T06:24:01.185Z,44.68
2022-08-02T06:26:29.446Z,43.61
2022-08-02T06:28:57.649Z,45.2
2022-08-02T06:32:02.990Z,44.05
2022-08-02T06:34:31.205Z,43.85
2022-08-02T06:36:59.464Z,43.92
2022-08-02T06:39:27.694Z,43.49
2022-08-02T06:42:33.009Z,44.13
2022-08-02T06:45:01.265Z,44.48
2022-08-02T06:47:29.534Z,44.08
2022-08-02T06:49:57.845Z,43.21
2022-08-02T06:52:28.591Z,42.73
2022-08-02T06:55:31.343Z,43.3
2022-08-02T06:57:59.572Z,43.5
2022-08-02T07:00:27.817Z,43.57
2022-08-02T07:03:33.123Z,43.5
2022-08-02T07:06:01.355Z,43.01
2022-08-02T07:08:29.645Z,43.37
2022-08-02T07:10:49.654Z,42.87
2022-08-02T07:13:17.916Z,42.87
2022-08-02T07:16:23.247Z,40.62
2022-08-02T07:19:31.926Z,41.71
2022-08-02T07:22:33.851Z,40.63
2022-08-02T07:25:02.108Z,40.99
2022-08-02T07:27:30.368Z,41.48
2022-08-02T07:29:58.601Z,45.02
2022-08-02T07:33:03.939Z,40.53
2022-08-02T07:35:32.132Z,40.07
2022-08-02T07:38:02.124Z,39.91
2022-08-02T07:40:28.640Z,38.63
2022-08-02T07:43:02.687Z,38.57
2022-08-02T07:45:25.146Z,39.79
2022-08-02T07:48:30.442Z,40.09
2022-08-02T07:50:58.706Z,39.72
2022-08-02T07:53:30.693Z,39.52
2022-08-02T07:57:09.352Z,38.26
2022-08-02T08:00:14.658Z,38.12
2022-08-02T08:03:19.978Z,38.88
2022-08-02T08:06:28.363Z,38.7
2022-08-02T08:09:38.113Z,38.33
2022-08-02T08:12:27.682Z,38.08
2022-08-02T08:15:33.008Z,38.09
2022-08-02T08:18:01.292Z,38.39
2022-08-02T08:20:29.615Z,37.94
2022-08-02T08:22:57.761Z,38.18
2022-08-02T08:25:27.116Z,37.45
2022-08-02T08:28:31.304Z,37.92
2022-08-02T08:30:59.551Z,37.64
2022-08-02T08:33:30.933Z,37.18
2022-08-02T08:36:33.121Z,37.47
2022-08-02T08:39:01.365Z,37.86
2022-08-02T08:41:30.102Z,37.48
2022-08-02T08:43:57.875Z,37.62
2022-08-02T08:46:26.114Z,36.88
2022-08-02T08:49:31.435Z,35.25
2022-08-02T08:51:59.664Z,35.11
2022-08-02T08:54:27.896Z,34.26
2022-08-02T08:57:33.233Z,34.5
2022-08-02T09:00:01.475Z,34.96
2022-08-02T09:02:29.893Z,32.27
2022-08-02T09:04:57.986Z,33.44
2022-08-02T09:08:32.144Z,34.03
2022-08-02T09:11:00.424Z,33.63
2022-08-02T09:13:31.425Z,34.27
2022-08-02T09:15:56.932Z,34.52
2022-08-02T09:18:25.137Z,33.49
2022-08-02T09:21:30.445Z,32.73
2022-08-02T09:23:58.725Z,38.54
2022-08-02T09:26:26.969Z,33.44
2022-08-02T09:30:12.869Z,34.13
2022-08-02T09:33:14.671Z,32.31
2022-08-02T09:36:19.936Z,32.23
2022-08-02T09:39:25.262Z,33.55
2022-08-02T09:42:30.761Z,33.16
2022-08-02T09:44:58.837Z,33.9
2022-08-02T09:47:27.044Z,32.17
2022-08-02T09:50:32.359Z,31.7
2022-08-02T09:53:00.614Z,32.19
2022-08-02T09:55:28.919Z,31.91
2022-08-02T09:57:57.129Z,31.79
2022-08-02T10:00:37.373Z,31.61
2022-08-02T10:03:34.987Z,31.76
2022-08-02T10:06:02.131Z,31.74
2022-08-02T10:08:27.155Z,31.85
2022-08-02T10:11:24.387Z,31.44
2022-08-02T10:14:29.571Z,31.23
2022-08-02T10:16:57.893Z,31.49
2022-08-02T10:19:59.957Z,32.33
2022-08-02T10:22:31.424Z,32.58
2022-08-02T10:24:59.671Z,32.52
2022-08-02T10:27:28.252Z,33.22
2022-08-02T10:30:33.254Z,33.47
2022-08-02T10:33:01.489Z,32.28
2022-08-02T10:35:29.700Z,32.27
2022-08-02T10:37:57.936Z,32.37
2022-08-02T10:40:26.382Z,31.65
2022-08-02T10:43:31.537Z,31.48
2022-08-02T10:45:59.761Z,31.59
2022-08-02T10:48:28.007Z,31.24
2022-08-02T10:51:34.664Z,30.91
2022-08-02T10:54:01.569Z,31.13
2022-08-02T10:56:29.862Z,30.12
2022-08-02T10:58:58.073Z,30.11
2022-08-02T11:01:26.386Z,30.9
2022-08-02T11:04:31.677Z,31.65
2022-08-02T11:06:59.902Z,30.79
2022-08-02T11:09:19.946Z,30.05
2022-08-02T11:12:25.246Z,30.14
2022-08-02T11:15:30.542Z,30.77
2022-08-02T11:17:58.823Z,31.38
2022-08-02T11:20:27.051Z,30.4
2022-08-02T11:24:09.407Z,29.19
2022-08-02T11:27:14.752Z,30.98
2022-08-02T11:30:20.063Z,29.43
2022-08-02T11:33:25.316Z,29.04
2022-08-02T11:36:30.687Z,29.12
2022-08-02T11:38:58.878Z,28.41
2022-08-02T11:41:39.437Z,31.04
2022-08-02T11:44:32.472Z,29.23
2022-08-02T11:47:00.708Z,28.42
2022-08-02T11:49:29.076Z,28.58
2022-08-02T11:51:57.255Z,29.91
2022-08-02T11:54:25.430Z,29.63
2022-08-02T11:57:37.719Z,27.62
2022-08-02T11:59:59.036Z,28.24
2022-08-02T12:02:28.844Z,27.59
2022-08-02T12:06:04.238Z,26.98
2022-08-02T12:08:00.798Z,27.57
2022-08-02T12:10:20.874Z,26.43
2022-08-02T12:13:26.189Z,26.93
2022-08-02T12:16:31.473Z,27.88
2022-08-02T12:18:59.714Z,26.97
2022-08-02T12:21:28.012Z,26.45
2022-08-02T12:24:33.321Z,26.53
2022-08-02T12:27:01.546Z,25.51
2022-08-02T12:29:56.241Z,25.55
2022-08-02T12:31:58.256Z,25.06
2022-08-02T12:34:30.104Z,26.44
2022-08-02T12:37:31.606Z,26.67
2022-08-02T12:39:59.869Z,25.49
2022-08-02T12:42:28.097Z,26.61
2022-08-02T12:45:38.452Z,25.55
2022-08-02T12:48:01.649Z,26.3
2022-08-02T12:50:29.916Z,26.22
2022-08-02T12:52:58.163Z,25.25
2022-08-02T12:55:26.387Z,24.2
2022-08-02T12:59:03.861Z,24.38
2022-08-02T13:00:59.993Z,24.05
2022-08-02T13:04:08.326Z,23.8
2022-08-02T13:06:42.846Z,23.77
2022-08-02T13:10:07.698Z,25.46
2022-08-02T13:13:13.043Z,25.98
2022-08-02T13:16:18.351Z,25.88
2022-08-02T13:19:23.648Z,26.61
2022-08-02T13:22:28.965Z,25.13
2022-08-02T13:25:34.247Z,24.69
2022-08-02T13:28:02.493Z,25.01
2022-08-02T13:30:30.769Z,22.96
2022-08-02T13:33:01.070Z,23.42
2022-08-02T13:35:27.259Z,24.34
2022-08-02T13:38:32.580Z,23.15
2022-08-02T13:41:04.514Z,22.63
2022-08-02T13:43:52.215Z,22.23
2022-08-02T13:46:34.403Z,24.2
2022-08-02T13:49:02.657Z,24.05
2022-08-02T13:51:30.873Z,23.94
2022-08-02T13:53:59.140Z,23.39
2022-08-02T13:56:35.301Z,22.49
2022-08-02T14:00:04.686Z,23.36
2022-08-02T14:02:01.014Z,22.76
2022-08-02T14:04:29.196Z,23.83
2022-08-02T14:07:34.479Z,23.99
2022-08-02T14:10:31.588Z,21.73
2022-08-02T14:12:59.880Z,21.33
2022-08-02T14:15:30.168Z,20.85
2022-08-02T14:18:33.422Z,23.28
2022-08-02T14:21:01.665Z,22.34
2022-08-02T14:23:49.556Z,22.52
2022-08-02T14:25:58.175Z,23.12
2022-08-02T14:28:26.403Z,22.08
2022-08-02T14:31:31.733Z,22.46
2022-08-02T14:33:59.967Z,21.86
2022-08-02T14:36:28.328Z,22.34
2022-08-02T14:39:42.726Z,21.85
2022-08-02T14:42:01.772Z,21
2022-08-02T14:44:29.995Z,20.62
2022-08-02T14:46:58.296Z,20.42
2022-08-02T14:49:27.051Z,20.7
2022-08-02T14:52:31.848Z,22.03
2022-08-02T14:55:00.091Z,20.86
2022-08-02T14:57:28.313Z,21.32
2022-08-02T15:00:37.262Z,22.72
2022-08-02T15:03:01.858Z,21.47
2022-08-02T15:05:30.151Z,22.54
2022-08-02T15:07:58.413Z,20.89
2022-08-02T15:10:18.866Z,22.63
2022-08-02T15:13:23.744Z,22.42
2022-08-02T15:16:47.533Z,22.63
2022-08-02T15:19:41.602Z,22.76
2022-08-02T15:22:08.734Z,22.55
2022-08-02T15:24:30.865Z,23.17
2022-08-02T15:26:59.116Z,22.44
2022-08-02T15:29:27.375Z,21.61
2022-08-02T15:32:32.673Z,22.79
2022-08-02T15:35:00.927Z,22.04
2022-08-02T15:37:30.986Z,22.25
2022-08-02T15:39:57.429Z,22.37
2022-08-02T15:42:30.375Z,21.75
2022-08-02T15:45:31.006Z,22.74
2022-08-02T15:47:59.229Z,22.64
2022-08-02T15:50:27.527Z,21.45
2022-08-02T15:53:32.822Z,22.54
2022-08-02T15:56:04.205Z,23.14
2022-08-02T15:58:29.302Z,22.54
2022-08-02T16:00:57.559Z,22.59
2022-08-02T16:03:25.788Z,23.21
2022-08-02T16:06:31.095Z,22.6
2022-08-02T16:08:59.368Z,23.24
2022-08-02T16:11:56.471Z,21.62
2022-08-02T16:14:24.687Z,22.44
2022-08-02T16:17:48.281Z,21.86
2022-08-02T16:19:58.271Z,21.87
2022-08-02T16:22:26.502Z,22.14
2022-08-02T16:25:31.785Z,22.79
2022-08-02T16:28:07.509Z,21.75
2022-08-02T16:30:28.307Z,23.14
2022-08-02T16:33:33.640Z,22.64
2022-08-02T16:36:01.888Z,23.1
2022-08-02T16:38:30.140Z,23.58
2022-08-02T16:41:01.484Z,22.7
2022-08-02T16:43:26.664Z,22.39
2022-08-02T16:46:31.930Z,22.31
2022-08-02T16:49:00.304Z,22.98
2022-08-02T16:51:28.452Z,23.99
2022-08-02T16:53:59.515Z,23.83
2022-08-02T16:56:24.905Z,23.25
2022-08-02T16:59:34.135Z,23.2
2022-08-02T17:02:02.783Z,24.37
2022-08-02T17:04:26.740Z,24.41
2022-08-02T17:08:06.768Z,23.04
2022-08-02T17:10:02.850Z,23.26
2022-08-02T17:12:28.550Z,23.28
2022-08-02T17:15:53.228Z,23.93
2022-08-02T17:19:03.235Z,23.71
2022-08-02T17:20:59.202Z,23.5
2022-08-02T17:23:47.457Z,23.3
2022-08-02T17:26:32.794Z,23.84
2022-08-02T17:29:14.784Z,24.4
2022-08-02T17:31:29.577Z,23.75
2022-08-02T17:34:34.578Z,23.74
2022-08-02T17:37:05.469Z,23.71
2022-08-02T17:39:33.672Z,23.56
2022-08-02T17:41:59.319Z,23.67
2022-08-02T17:44:36.767Z,23.62
2022-08-02T17:47:32.908Z,23.76
2022-08-02T17:50:01.258Z,23.87
2022-08-02T17:52:49.693Z,23.61
2022-08-02T17:54:57.628Z,23.86
2022-08-02T17:57:40.511Z,23.26
2022-08-02T18:00:31.214Z,23.43
2022-08-02T18:02:59.487Z,23.41
2022-08-02T18:05:36.272Z,23.44
2022-08-02T18:08:33.032Z,23.64
2022-08-02T18:12:07.181Z,23.57
2022-08-02T18:15:14.363Z,23.53
2022-08-02T18:18:19.028Z,23.84
2022-08-02T18:21:23.175Z,23.68
2022-08-02T18:24:28.466Z,24.13
2022-08-02T18:27:33.749Z,24.29
2022-08-02T18:30:04.292Z,23.93
2022-08-02T18:33:01.176Z,24.17
2022-08-02T18:35:30.758Z,24.24
2022-08-02T18:37:26.726Z,24.06
2022-08-02T18:40:32.048Z,24.64
2022-08-02T18:43:00.268Z,24
2022-08-02T18:45:42.105Z,24.09
2022-08-02T18:48:33.834Z,24.58
2022-08-02T18:51:02.100Z,24.74
2022-08-02T18:53:39.463Z,24.68
2022-08-02T18:55:59.043Z,24.57
2022-08-02T18:58:26.868Z,24.89
2022-08-02T19:01:33.928Z,25.09
2022-08-02T19:04:00.354Z,25.17
2022-08-02T19:06:28.994Z,25.46
2022-08-02T19:09:33.954Z,25.81
2022-08-02T19:12:39.251Z,26.86
2022-08-02T19:14:59.333Z,27.09
2022-08-02T19:17:53.405Z,27.77
2022-08-02T19:20:32.865Z,27.85
2022-08-02T19:23:01.120Z,27.79
2022-08-02T19:25:29.398Z,28.12
2022-08-02T19:27:57.637Z,27.97
2022-08-02T19:30:26.001Z,28.39
2022-08-02T19:33:54.643Z,28.41
2022-08-02T19:36:01.839Z,28.59
2022-08-02T19:38:27.675Z,28.67
2022-08-02T19:41:43.738Z,28.88
2022-08-02T19:44:22.056Z,29.07
2022-08-02T19:46:29.508Z,29.19
2022-08-02T19:48:57.880Z,29.18
2022-08-02T19:51:49.421Z,29.35
2022-08-02T19:54:35.683Z,29.54
2022-08-02T19:56:59.627Z,29.62
2022-08-02T19:59:30.746Z,29.99
2022-08-02T20:02:33.194Z,30.07
2022-08-02T20:05:01.342Z,30.08
2022-08-02T20:07:52.254Z,30.07
2022-08-02T20:09:57.845Z,29.99
2022-08-02T20:12:17.880Z,30.46
2022-08-02T20:15:23.194Z,30.01
2022-08-02T20:18:28.766Z,30.33
2022-08-02T20:21:34.636Z,30.48
2022-08-02T20:24:02.168Z,30.24
2022-08-02T20:26:30.333Z,30.51
2022-08-02T20:29:02.372Z,30.3
2022-08-02T20:31:26.801Z,30.26
2022-08-02T20:34:32.147Z,30.51
2022-08-02T20:37:00.418Z,30.43
2022-08-02T20:39:42.773Z,30.66
2022-08-02T20:42:34.003Z,30.9
2022-08-02T20:45:02.255Z,30.43
2022-08-02T20:47:39.034Z,30.79
2022-08-02T20:49:58.777Z,30.92
2022-08-02T20:52:27.024Z,30.84
2022-08-02T20:55:32.407Z,30.79
2022-08-02T20:58:01.954Z,30.88
2022-08-02T21:04:16.336Z,30.99
2022-08-02T21:06:39.369Z,30.98
2022-08-02T21:09:07.624Z,30.95
2022-08-02T21:13:22.311Z,31.35
2022-08-02T21:16:25.093Z,31.22
2022-08-02T21:19:29.476Z,31.48
2022-08-02T21:21:57.749Z,31.54
2022-08-02T21:24:25.967Z,31.65
2022-08-02T21:27:51.533Z,31.61
2022-08-02T21:29:59.562Z,31.6
2022-08-02T21:32:27.775Z,32.28
2022-08-02T21:35:33.111Z,32.04
2022-08-02T21:38:01.350Z,32
2022-08-02T21:40:29.588Z,32.4
2022-08-02T21:42:57.792Z,32.3
2022-08-02T21:45:26.075Z,32.47
2022-08-02T21:48:31.428Z,32.65
2022-08-02T21:50:59.651Z,32.54
2022-08-02T21:53:42.415Z,32.81
2022-08-02T21:56:33.199Z,32.9
2022-08-02T21:59:01.420Z,32.77
2022-08-02T22:01:29.793Z,32.97
2022-08-02T22:03:58.008Z,33.05
2022-08-02T22:06:26.192Z,33.32
2022-08-02T22:09:42.774Z,33.39
2022-08-02T22:11:59.750Z,33.25
2022-08-02T22:14:28.041Z,33.43
2022-08-02T22:17:49.864Z,33.43
2022-08-02T22:20:30.407Z,33.62
2022-08-02T22:22:58.678Z,33.62
2022-08-02T22:25:36.055Z,33.7
2022-08-02T22:28:36.890Z,33.76
2022-08-02T22:31:00.481Z,33.54
2022-08-02T22:33:31.458Z,33.9
2022-08-02T22:35:56.977Z,33.87
2022-08-02T22:38:25.202Z,34.02
2022-08-02T22:42:00.269Z,34.31
2022-08-02T22:43:58.773Z,34.26
2022-08-02T22:46:34.201Z,34.09
2022-08-02T22:49:37.371Z,34.35
2022-08-02T22:52:00.576Z,34.55
2022-08-02T22:54:28.850Z,34.75
2022-08-02T22:57:34.160Z,34.5
2022-08-02T23:00:02.410Z,34.69
2022-08-02T23:02:30.643Z,34.68
2022-08-02T23:04:58.895Z,35.06
2022-08-02T23:07:27.147Z,34.89
2022-08-02T23:10:32.471Z,34.98
2022-08-02T23:13:00.660Z,34.93
2022-08-02T23:15:28.960Z,34.91
2022-08-02T23:18:34.273Z,35.09
2022-08-02T23:21:02.641Z,34.98
2022-08-02T23:23:30.760Z,35.37
2022-08-02T23:25:50.797Z,35.25
2022-08-02T23:28:19.023Z,35.02
2022-08-02T23:31:24.380Z,35.29
2022-08-02T23:34:29.658Z,35.68
2022-08-02T23:36:57.926Z,35.54
2022-08-02T23:39:26.216Z,35.66
2022-08-02T23:42:31.465Z,35.19
2022-08-02T23:44:59.692Z,35.41
2022-08-02T23:47:27.976Z,35.58
